KALO/ALO METAR and TAF weather

Enter ICAO airport designator
Station Type Date Time Source
KALO METAR 2019/02/23 01:54 UTC NOAA

KALO 230154Z AUTO 09011KT 9SM OVC060 M01/M06 A3022 RMK AO2 SLP249 T10111061


Station Type Date Time Source
KALO Decoded METAR 2019/02/23 01:54 UTC NOAA

WATERLOO MUNICIPAL AIRPORT, IA, United States (KALO) 42-33N 92-24W 264M
Feb 22, 2019 - 08:54 PM EST / 2019.02.23 0154 UTC
Wind: from the E (090 degrees) at 13 MPH (11 KT):0
Visibility: 9 mile(s):0
Sky conditions: overcast
Temperature: 30.0 F (-1.1 C)
Windchill: 19 F (-7 C):1
Dew Point: 21.0 F (-6.1 C)
Relative Humidity: 68%
Pressure (altimeter): 30.22 in. Hg (1023 hPa)
ob: KALO 230154Z AUTO 09011KT 9SM OVC060 M01/M06 A3022 RMK AO2 SLP249 T10111061
cycle: 2

Station Type Date Time Source
KALO TAF 2019/02/22 18:24 UTC NOAA

TAF KALO 221721Z 2218/2318 05006KT P6SM SKC
FM230300 12010KT P6SM OVC035
FM230500 12010KT 5SM -FZDZ OVC020
FM231000 11009KT 3SM -FZDZ OVC010
FM231500 09007KT 3SM -RA OVC010


Example: see airport list